PDT5822 KPHL-KRIC
Flight info
| Callsign | PDT5822 |
|---|---|
| Flight time | 0h 36m |
| Altitude | 22000 |
| Route | OOD TEBEE HAYDO GROUT/N0311F160 T315 SHLBK/N0291F100 T315 COLIN |
| Aircraft | E145/M-SDFGIRW/S |
Departure
| Time | 2026-04-23 16:26 |
|---|---|
| Airport | Philadelphia International Airport (KPHL) |
Arrival
| Time | 2026-04-23 17:02 |
|---|---|
| Airport | Richmond International Airport (KRIC) |
| Time | Latitude | Longitude | Altitude | Speed | Heading |
|---|---|---|---|---|---|
| 2026-04-23 15:58 | 39.88165 | -75.23677 | 12 ft | 0 kts | 281° |
| 2026-04-23 16:15 | 39.88165 | -75.23678 | 13 ft | 0 kts | 281° |
| 2026-04-23 16:15 | 39.88165 | -75.23675 | 13 ft | 2 kts | 281° |
| 2026-04-23 16:16 | 39.88162 | -75.23656 | 13 ft | 2 kts | 281° |
| 2026-04-23 16:16 | 39.88159 | -75.23637 | 13 ft | 2 kts | 281° |
| 2026-04-23 16:16 | 39.88156 | -75.23618 | 13 ft | 2 kts | 281° |
| 2026-04-23 16:16 | 39.88153 | -75.23598 | 13 ft | 2 kts | 281° |
| 2026-04-23 16:17 | 39.88153 | -75.23579 | 13 ft | 2 kts | 245° |
| 2026-04-23 16:17 | 39.88160 | -75.23562 | 13 ft | 2 kts | 228° |
| 2026-04-23 16:17 | 39.88172 | -75.23553 | 13 ft | 2 kts | 186° |
| 2026-04-23 16:17 | 39.88187 | -75.23556 | 13 ft | 2 kts | 156° |
| 2026-04-23 16:18 | 39.88197 | -75.23561 | 13 ft | 0 kts | 160° |
| 2026-04-23 16:21 | 39.88171 | -75.23549 | 12 ft | 10 kts | 159° |
| 2026-04-23 16:21 | 39.88095 | -75.23507 | 12 ft | 12 kts | 139° |
| 2026-04-23 16:22 | 39.88049 | -75.23408 | 12 ft | 14 kts | 155° |
| 2026-04-23 16:22 | 39.87952 | -75.23360 | 12 ft | 15 kts | 159° |
| 2026-04-23 16:22 | 39.87843 | -75.23305 | 12 ft | 17 kts | 159° |
| 2026-04-23 16:22 | 39.87723 | -75.23246 | 12 ft | 19 kts | 159° |
| 2026-04-23 16:23 | 39.87593 | -75.23182 | 12 ft | 20 kts | 159° |
| 2026-04-23 16:23 | 39.87453 | -75.23113 | 12 ft | 22 kts | 160° |
| 2026-04-23 16:23 | 39.87306 | -75.23040 | 12 ft | 23 kts | 159° |
| 2026-04-23 16:23 | 39.87180 | -75.22993 | 12 ft | 13 kts | 200° |
| 2026-04-23 16:24 | 39.87140 | -75.23106 | 12 ft | 15 kts | 255° |
| 2026-04-23 16:24 | 39.87076 | -75.23221 | 12 ft | 16 kts | 235° |
| 2026-04-23 16:24 | 39.87027 | -75.23365 | 12 ft | 17 kts | 255° |
| 2026-04-23 16:24 | 39.86974 | -75.23419 | 12 ft | 11 kts | 165° |
| 2026-04-23 16:25 | 39.86902 | -75.23415 | 12 ft | 10 kts | 234° |
| 2026-04-23 16:25 | 39.86893 | -75.23460 | 12 ft | 4 kts | 256° |
| 2026-04-23 16:25 | 39.86834 | -75.23755 | 12 ft | 72 kts | 255° |
| 2026-04-23 16:25 | 39.86648 | -75.24678 | 15 ft | 136 kts | 256° |
| 2026-04-23 16:26 | 39.86416 | -75.26023 | 261 ft | 161 kts | 260° |
| 2026-04-23 16:26 | 39.86144 | -75.27521 | 684 ft | 183 kts | 247° |
| 2026-04-23 16:26 | 39.85344 | -75.28915 | 1191 ft | 205 kts | 224° |
| 2026-04-23 16:26 | 39.84148 | -75.30148 | 1708 ft | 231 kts | 222° |
| 2026-04-23 16:27 | 39.82861 | -75.31489 | 2279 ft | 245 kts | 220° |
| 2026-04-23 16:27 | 39.81443 | -75.32784 | 2978 ft | 253 kts | 212° |
| 2026-04-23 16:27 | 39.79707 | -75.33545 | 3054 ft | 282 kts | 186° |
| 2026-04-23 16:27 | 39.77824 | -75.33155 | 3139 ft | 273 kts | 162° |
| 2026-04-23 16:28 | 39.75975 | -75.32625 | 3681 ft | 277 kts | 172° |
| 2026-04-23 16:28 | 39.74098 | -75.32241 | 4660 ft | 272 kts | 174° |
| 2026-04-23 16:28 | 39.72216 | -75.31888 | 5394 ft | 277 kts | 175° |
| 2026-04-23 16:28 | 39.70315 | -75.31538 | 6095 ft | 281 kts | 175° |
| 2026-04-23 16:29 | 39.68361 | -75.31180 | 6795 ft | 285 kts | 175° |
| 2026-04-23 16:29 | 39.66575 | -75.30853 | 7398 ft | 290 kts | 176° |
| 2026-04-23 16:29 | 39.64576 | -75.30487 | 8077 ft | 294 kts | 176° |
| 2026-04-23 16:29 | 39.62553 | -75.30493 | 8734 ft | 291 kts | 194° |
| 2026-04-23 16:30 | 39.60542 | -75.30866 | 9401 ft | 295 kts | 194° |
| 2026-04-23 16:30 | 39.58502 | -75.31233 | 10074 ft | 297 kts | 194° |
| 2026-04-23 16:30 | 39.56458 | -75.31605 | 10663 ft | 304 kts | 194° |
| 2026-04-23 16:30 | 39.54301 | -75.31995 | 11098 ft | 315 kts | 194° |
| 2026-04-23 16:31 | 39.52099 | -75.32394 | 11525 ft | 326 kts | 194° |
| 2026-04-23 16:31 | 39.49816 | -75.32806 | 11922 ft | 336 kts | 194° |
| 2026-04-23 16:31 | 39.47468 | -75.33231 | 12391 ft | 343 kts | 194° |
| 2026-04-23 16:31 | 39.45116 | -75.33656 | 12959 ft | 345 kts | 194° |
| 2026-04-23 16:32 | 39.42736 | -75.34086 | 13561 ft | 347 kts | 194° |
| 2026-04-23 16:32 | 39.40334 | -75.34520 | 14123 ft | 350 kts | 193° |
| 2026-04-23 16:32 | 39.37903 | -75.34960 | 14623 ft | 354 kts | 193° |
| 2026-04-23 16:32 | 39.35448 | -75.35403 | 15126 ft | 358 kts | 194° |
| 2026-04-23 16:33 | 39.32951 | -75.35854 | 15596 ft | 362 kts | 193° |
| 2026-04-23 16:33 | 39.30440 | -75.36302 | 16129 ft | 365 kts | 193° |
| 2026-04-23 16:33 | 39.27947 | -75.36750 | 16616 ft | 368 kts | 193° |
| 2026-04-23 16:33 | 39.25384 | -75.37211 | 17071 ft | 372 kts | 193° |
| 2026-04-23 16:34 | 39.22805 | -75.37674 | 17577 ft | 374 kts | 193° |
| 2026-04-23 16:34 | 39.20250 | -75.38133 | 18060 ft | 376 kts | 193° |
| 2026-04-23 16:34 | 39.17658 | -75.38597 | 18631 ft | 375 kts | 193° |
| 2026-04-23 16:34 | 39.15078 | -75.39059 | 19200 ft | 374 kts | 193° |
| 2026-04-23 16:35 | 39.12500 | -75.39521 | 19724 ft | 374 kts | 193° |
| 2026-04-23 16:35 | 39.09911 | -75.39984 | 20191 ft | 376 kts | 193° |
| 2026-04-23 16:35 | 39.07326 | -75.40447 | 20747 ft | 375 kts | 193° |
| 2026-04-23 16:35 | 39.04750 | -75.40916 | 21274 ft | 373 kts | 195° |
| 2026-04-23 16:36 | 39.02364 | -75.42028 | 21732 ft | 359 kts | 219° |
| 2026-04-23 16:36 | 39.00557 | -75.44087 | 22004 ft | 349 kts | 240° |
| 2026-04-23 16:36 | 38.99153 | -75.46664 | 22018 ft | 357 kts | 242° |
| 2026-04-23 16:36 | 38.97712 | -75.49350 | 22018 ft | 368 kts | 242° |
| 2026-04-23 16:37 | 38.96267 | -75.52115 | 22020 ft | 376 kts | 245° |
| 2026-04-23 16:37 | 38.94943 | -75.55049 | 22016 ft | 384 kts | 246° |
| 2026-04-23 16:37 | 38.93584 | -75.58037 | 22007 ft | 393 kts | 246° |
| 2026-04-23 16:37 | 38.92193 | -75.61087 | 22003 ft | 400 kts | 245° |
| 2026-04-23 16:38 | 38.90790 | -75.64158 | 22010 ft | 406 kts | 245° |
| 2026-04-23 16:38 | 38.89347 | -75.67313 | 22011 ft | 413 kts | 245° |
| 2026-04-23 16:38 | 38.87878 | -75.70521 | 22006 ft | 418 kts | 244° |
| 2026-04-23 16:38 | 38.86391 | -75.73764 | 22008 ft | 423 kts | 245° |
| 2026-04-23 16:39 | 38.84894 | -75.77028 | 22009 ft | 427 kts | 244° |
| 2026-04-23 16:39 | 38.83384 | -75.80316 | 22016 ft | 431 kts | 244° |
| 2026-04-23 16:39 | 38.81857 | -75.83637 | 22010 ft | 434 kts | 245° |
| 2026-04-23 16:39 | 38.80327 | -75.86961 | 22007 ft | 435 kts | 244° |
| 2026-04-23 16:40 | 38.78796 | -75.90282 | 22019 ft | 434 kts | 244° |
| 2026-04-23 16:40 | 38.77255 | -75.93622 | 22002 ft | 433 kts | 244° |
| 2026-04-23 16:40 | 38.75383 | -75.96636 | 22003 ft | 442 kts | 227° |
| 2026-04-23 16:40 | 38.72909 | -75.99046 | 22023 ft | 445 kts | 220° |
| 2026-04-23 16:41 | 38.70407 | -76.01382 | 22016 ft | 445 kts | 220° |
| 2026-04-23 16:41 | 38.67908 | -76.03715 | 22017 ft | 445 kts | 221° |
| 2026-04-23 16:41 | 38.65408 | -76.06050 | 22016 ft | 445 kts | 221° |
| 2026-04-23 16:41 | 38.62929 | -76.08388 | 22014 ft | 443 kts | 223° |
| 2026-04-23 16:42 | 38.60679 | -76.11037 | 22019 ft | 439 kts | 229° |
| 2026-04-23 16:42 | 38.58467 | -76.13734 | 22016 ft | 439 kts | 228° |
| 2026-04-23 16:42 | 38.56259 | -76.16421 | 22016 ft | 439 kts | 228° |
| 2026-04-23 16:42 | 38.54048 | -76.19107 | 22016 ft | 439 kts | 228° |
| 2026-04-23 16:43 | 38.51828 | -76.21802 | 22016 ft | 439 kts | 228° |
| 2026-04-23 16:43 | 38.49631 | -76.24467 | 22018 ft | 439 kts | 228° |
| 2026-04-23 16:43 | 38.47418 | -76.27147 | 22017 ft | 440 kts | 228° |
| 2026-04-23 16:43 | 38.45203 | -76.29829 | 22007 ft | 440 kts | 227° |
| 2026-04-23 16:44 | 38.42979 | -76.32519 | 22006 ft | 440 kts | 228° |
| 2026-04-23 16:44 | 38.40751 | -76.35212 | 22005 ft | 437 kts | 227° |
| 2026-04-23 16:44 | 38.38604 | -76.37801 | 21633 ft | 423 kts | 228° |
| 2026-04-23 16:44 | 38.36509 | -76.40328 | 21114 ft | 407 kts | 228° |
| 2026-04-23 16:45 | 38.34491 | -76.42762 | 20484 ft | 397 kts | 228° |
| 2026-04-23 16:45 | 38.32377 | -76.44978 | 19769 ft | 391 kts | 220° |
| 2026-04-23 16:45 | 38.30226 | -76.47035 | 19072 ft | 383 kts | 221° |
| 2026-04-23 16:45 | 38.28133 | -76.49043 | 18439 ft | 374 kts | 221° |
| 2026-04-23 16:46 | 38.26070 | -76.51022 | 17825 ft | 366 kts | 221° |
| 2026-04-23 16:46 | 38.24085 | -76.52923 | 17251 ft | 358 kts | 221° |
| 2026-04-23 16:46 | 38.22113 | -76.54811 | 16663 ft | 350 kts | 221° |
| 2026-04-23 16:46 | 38.20194 | -76.56648 | 16089 ft | 344 kts | 221° |
| 2026-04-23 16:47 | 38.18301 | -76.58458 | 15521 ft | 338 kts | 221° |
| 2026-04-23 16:47 | 38.16435 | -76.60241 | 14967 ft | 332 kts | 221° |
| 2026-04-23 16:47 | 38.14610 | -76.61984 | 14427 ft | 326 kts | 221° |
| 2026-04-23 16:47 | 38.12808 | -76.63705 | 13877 ft | 321 kts | 221° |
| 2026-04-23 16:48 | 38.11060 | -76.65372 | 13348 ft | 316 kts | 221° |
| 2026-04-23 16:48 | 38.09262 | -76.66969 | 12848 ft | 314 kts | 215° |
| 2026-04-23 16:48 | 38.07396 | -76.68401 | 12299 ft | 312 kts | 216° |
| 2026-04-23 16:48 | 38.05593 | -76.69790 | 11660 ft | 300 kts | 216° |
| 2026-04-23 16:49 | 38.04414 | -76.70698 | 11345 ft | 290 kts | 216° |
| 2026-04-23 16:49 | 38.02155 | -76.72439 | 10866 ft | 283 kts | 216° |
| 2026-04-23 16:49 | 38.00479 | -76.73731 | 10496 ft | 279 kts | 216° |
| 2026-04-23 16:49 | 37.98835 | -76.74996 | 10122 ft | 275 kts | 216° |
| 2026-04-23 16:50 | 37.97208 | -76.76249 | 9802 ft | 269 kts | 216° |
| 2026-04-23 16:50 | 37.95644 | -76.77451 | 9565 ft | 262 kts | 216° |
| 2026-04-23 16:50 | 37.94094 | -76.78642 | 9316 ft | 262 kts | 216° |
| 2026-04-23 16:50 | 37.92503 | -76.79867 | 9065 ft | 269 kts | 216° |
| 2026-04-23 16:51 | 37.90900 | -76.81097 | 8870 ft | 272 kts | 215° |
| 2026-04-23 16:51 | 37.89257 | -76.82348 | 8682 ft | 275 kts | 215° |
| 2026-04-23 16:51 | 37.87862 | -76.83965 | 8494 ft | 271 kts | 233° |
| 2026-04-23 16:51 | 37.86598 | -76.85753 | 8293 ft | 274 kts | 229° |
| 2026-04-23 16:52 | 37.84985 | -76.87036 | 8099 ft | 284 kts | 200° |
| 2026-04-23 16:52 | 37.83056 | -76.87602 | 7918 ft | 279 kts | 201° |
| 2026-04-23 16:52 | 37.81327 | -76.88555 | 7728 ft | 271 kts | 211° |
| 2026-04-23 16:52 | 37.79685 | -76.89721 | 7502 ft | 267 kts | 214° |
| 2026-04-23 16:53 | 37.78098 | -76.90915 | 7286 ft | 264 kts | 214° |
| 2026-04-23 16:53 | 37.76529 | -76.92109 | 7062 ft | 261 kts | 214° |
| 2026-04-23 16:53 | 37.74976 | -76.93295 | 6841 ft | 259 kts | 214° |
| 2026-04-23 16:53 | 37.73432 | -76.94473 | 6604 ft | 258 kts | 214° |
| 2026-04-23 16:54 | 37.71918 | -76.95629 | 6367 ft | 257 kts | 214° |
| 2026-04-23 16:54 | 37.70383 | -76.96800 | 6139 ft | 255 kts | 214° |
| 2026-04-23 16:54 | 37.68862 | -76.97960 | 5929 ft | 254 kts | 214° |
| 2026-04-23 16:54 | 37.67345 | -76.99115 | 5695 ft | 252 kts | 214° |
| 2026-04-23 16:55 | 37.65859 | -77.00248 | 5476 ft | 251 kts | 214° |
| 2026-04-23 16:55 | 37.64362 | -77.01388 | 5257 ft | 250 kts | 214° |
| 2026-04-23 16:55 | 37.62876 | -77.02518 | 5038 ft | 249 kts | 214° |
| 2026-04-23 16:55 | 37.61374 | -77.03661 | 4818 ft | 249 kts | 214° |
| 2026-04-23 16:56 | 37.59903 | -77.04780 | 4601 ft | 248 kts | 214° |
| 2026-04-23 16:56 | 37.58427 | -77.05901 | 4391 ft | 246 kts | 214° |
| 2026-04-23 16:56 | 37.56958 | -77.07018 | 4191 ft | 245 kts | 214° |
| 2026-04-23 16:56 | 37.55506 | -77.08120 | 3949 ft | 246 kts | 213° |
| 2026-04-23 16:57 | 37.54030 | -77.09241 | 3637 ft | 249 kts | 213° |
| 2026-04-23 16:57 | 37.52527 | -77.10381 | 3296 ft | 253 kts | 213° |
| 2026-04-23 16:57 | 37.51017 | -77.11525 | 3005 ft | 254 kts | 213° |
| 2026-04-23 16:57 | 37.49529 | -77.12652 | 2881 ft | 242 kts | 213° |
| 2026-04-23 16:58 | 37.48107 | -77.13729 | 2696 ft | 231 kts | 214° |
| 2026-04-23 16:58 | 37.46901 | -77.14934 | 2547 ft | 217 kts | 230° |
| 2026-04-23 16:58 | 37.45885 | -77.16305 | 2460 ft | 207 kts | 230° |
| 2026-04-23 16:58 | 37.44980 | -77.17514 | 2398 ft | 176 kts | 230° |
| 2026-04-23 16:59 | 37.44185 | -77.18581 | 2281 ft | 163 kts | 231° |
| 2026-04-23 16:59 | 37.43452 | -77.19686 | 2196 ft | 164 kts | 242° |
| 2026-04-23 16:59 | 37.43000 | -77.21006 | 2126 ft | 165 kts | 257° |
| 2026-04-23 16:59 | 37.43028 | -77.22414 | 2059 ft | 164 kts | 284° |
| 2026-04-23 17:00 | 37.43284 | -77.23830 | 1977 ft | 164 kts | 283° |
| 2026-04-23 17:00 | 37.43527 | -77.25203 | 1846 ft | 159 kts | 283° |
| 2026-04-23 17:00 | 37.43973 | -77.26454 | 1615 ft | 157 kts | 310° |
| 2026-04-23 17:00 | 37.44891 | -77.27206 | 1319 ft | 161 kts | 335° |
| 2026-04-23 17:01 | 37.45894 | -77.27778 | 1058 ft | 157 kts | 329° |
| 2026-04-23 17:01 | 37.46824 | -77.28474 | 825 ft | 154 kts | 325° |
| 2026-04-23 17:01 | 37.47720 | -77.29187 | 613 ft | 151 kts | 325° |
| 2026-04-23 17:01 | 37.48576 | -77.29885 | 415 ft | 143 kts | 326° |
| 2026-04-23 17:02 | 37.49141 | -77.30334 | 283 ft | 142 kts | 325° |
| 2026-04-23 17:02 | 37.50209 | -77.31192 | 161 ft | 122 kts | 327° |
| 2026-04-23 17:02 | 37.50735 | -77.31612 | 161 ft | 53 kts | 318° |
| 2026-04-23 17:02 | 37.50877 | -77.31884 | 162 ft | 26 kts | 294° |
| 2026-04-23 17:03 | 37.50935 | -77.32099 | 163 ft | 25 kts | 282° |
| 2026-04-23 17:03 | 37.50959 | -77.32294 | 164 ft | 20 kts | 277° |
| 2026-04-23 17:03 | 37.50977 | -77.32473 | 164 ft | 21 kts | 277° |
| 2026-04-23 17:03 | 37.50990 | -77.32657 | 164 ft | 19 kts | 261° |
| 2026-04-23 17:04 | 37.50964 | -77.32792 | 164 ft | 15 kts | 258° |
| 2026-04-23 17:04 | 37.51031 | -77.32851 | 164 ft | 15 kts | 12° |
| 2026-04-23 17:04 | 37.51110 | -77.32894 | 164 ft | 13 kts | 288° |
| 2026-04-23 17:04 | 37.51125 | -77.32982 | 164 ft | 5 kts | 281° |
| 2026-04-23 17:05 | 37.51100 | -77.33016 | 164 ft | 7 kts | 193° |
| 2026-04-23 17:05 | 37.51060 | -77.33028 | 164 ft | 3 kts | 192° |
| 2026-04-23 17:05 | 37.51054 | -77.33029 | 164 ft | 0 kts | 193° |